createdAt,value
2023-03-16T00:00:09.479Z,20.10
2023-03-16T00:02:44.791Z,17.73
2023-03-16T00:05:20.101Z,18.08
2023-03-16T00:07:55.816Z,18.58
2023-03-16T00:10:30.864Z,20.80
2023-03-16T00:13:05.732Z,19.15
2023-03-16T00:15:41.270Z,20.50
2023-03-16T00:18:16.174Z,17.33
2023-03-16T00:20:52.996Z,18.23
2023-03-16T00:23:28.788Z,20.58
2023-03-16T00:26:07.217Z,19.50
2023-03-16T00:28:42.674Z,16.15
2023-03-16T00:31:17.626Z,17.50
2023-03-16T00:33:52.516Z,17.13
2023-03-16T00:36:28.839Z,18.42
2023-03-16T00:39:05.471Z,18.02
2023-03-16T00:41:40.370Z,16.65
2023-03-16T00:44:15.272Z,16.15
2023-03-16T00:46:50.171Z,16.35
2023-03-16T00:49:25.118Z,14.77
2023-03-16T00:52:05.036Z,16.65
2023-03-16T00:54:47.466Z,20.83
2023-03-16T00:57:25.244Z,16.08
2023-03-16T01:00:02.342Z,15.52
2023-03-16T01:02:37.291Z,16.10
2023-03-16T01:05:14.115Z,19.65
2023-03-16T01:07:48.989Z,17.63
2023-03-16T01:10:24.812Z,16.05
2023-03-16T01:12:59.697Z,18.85
2023-03-16T01:15:34.891Z,20.35
2023-03-16T01:18:09.840Z,19.23
2023-03-16T01:20:50.570Z,20.58
2023-03-16T01:23:30.201Z,17.15
2023-03-16T01:26:05.676Z,20.80
2023-03-16T01:28:40.812Z,20.60
2023-03-16T01:31:16.715Z,19.13
2023-03-16T01:33:52.193Z,17.75
2023-03-16T01:36:31.870Z,23.05
2023-03-16T01:39:12.570Z,20.95
2023-03-16T01:41:51.712Z,22.75
2023-03-16T01:44:30.643Z,21.52
2023-03-16T01:47:12.034Z,22.60
2023-03-16T01:49:48.271Z,22.52
2023-03-16T01:52:28.860Z,20.92
2023-03-16T01:55:09.496Z,20.35
2023-03-16T01:57:47.273Z,20.63
2023-03-16T02:00:31.361Z,21.52
2023-03-16T02:03:18.652Z,20.05
2023-03-16T02:06:19.442Z,27.73
2023-03-16T02:09:00.524Z,21.33
2023-03-16T02:11:35.641Z,22.98
2023-03-16T02:14:18.253Z,18.48
2023-03-16T02:16:53.369Z,22.77
2023-03-16T02:19:42.138Z,23.10
2023-03-16T02:22:17.901Z,21.98
2023-03-16T02:24:54.663Z,22.83
2023-03-16T02:27:57.481Z,20.23
2023-03-16T02:30:33.524Z,21.77
2023-03-16T02:33:11.459Z,19.67
2023-03-16T02:35:46.398Z,21.73
2023-03-16T02:38:21.985Z,25.05
2023-03-16T02:41:16.190Z,24.92
2023-03-16T02:44:17.130Z,21.30
2023-03-16T02:46:58.469Z,22.10
2023-03-16T02:49:39.090Z,22.85
2023-03-16T02:52:14.697Z,23.23
2023-03-16T02:54:49.827Z,22.17
2023-03-16T02:57:24.734Z,23.30
2023-03-16T03:00:01.553Z,24.83
2023-03-16T03:02:37.884Z,23.10
2023-03-16T03:05:13.485Z,23.25
2023-03-16T03:07:48.469Z,26.08
2023-03-16T03:10:23.399Z,27.52
2023-03-16T03:12:59.082Z,23.83
2023-03-16T03:15:35.485Z,26.00
2023-03-16T03:18:15.898Z,23.90
2023-03-16T03:20:50.782Z,28.13
2023-03-16T03:23:25.791Z,25.00
2023-03-16T03:26:01.181Z,24.80
2023-03-16T03:28:37.832Z,23.17
2023-03-16T03:31:22.456Z,22.10
2023-03-16T03:33:59.546Z,26.27
2023-03-16T03:36:34.810Z,24.10
2023-03-16T03:39:10.063Z,25.95
2023-03-16T03:41:45.444Z,21.63
2023-03-16T03:44:24.385Z,24.40
2023-03-16T03:46:59.450Z,25.83
2023-03-16T03:49:35.507Z,21.67
2023-03-16T03:52:10.922Z,24.45
2023-03-16T03:54:45.846Z,23.55
2023-03-16T03:57:25.630Z,24.45
2023-03-16T04:00:00.940Z,27.77
2023-03-16T04:02:48.991Z,26.92
2023-03-16T04:05:34.391Z,23.17
2023-03-16T04:08:09.700Z,21.73
2023-03-16T04:10:44.763Z,21.15
2023-03-16T04:13:19.641Z,23.35
2023-03-16T04:15:59.748Z,20.40
2023-03-16T04:18:39.630Z,21.73
2023-03-16T04:21:17.803Z,21.52
2023-03-16T04:23:54.957Z,20.83
2023-03-16T04:26:37.377Z,23.98
2023-03-16T04:29:14.782Z,22.88
2023-03-16T04:31:50.929Z,20.85
2023-03-16T04:34:26.498Z,20.92
2023-03-16T04:37:05.142Z,21.73
2023-03-16T04:39:44.097Z,19.48
2023-03-16T04:42:19.197Z,18.42
2023-03-16T04:44:54.290Z,19.40
2023-03-16T04:47:30.613Z,22.25
2023-03-16T04:50:07.293Z,19.23
2023-03-16T04:52:43.090Z,21.13
2023-03-16T04:55:18.372Z,26.17
2023-03-16T04:57:53.398Z,18.80
2023-03-16T05:00:30.398Z,21.98
2023-03-16T05:03:11.664Z,19.17
2023-03-16T05:05:47.488Z,18.30
2023-03-16T05:08:23.753Z,17.90
2023-03-16T05:11:01.631Z,17.08
2023-03-16T05:13:41.018Z,19.13
2023-03-16T05:16:16.579Z,21.95
2023-03-16T05:18:52.891Z,16.42
2023-03-16T05:21:31.994Z,21.27
2023-03-16T05:24:12.355Z,19.00
2023-03-16T05:26:47.665Z,19.67
2023-03-16T05:29:26.209Z,21.27
2023-03-16T05:32:01.194Z,18.23
2023-03-16T05:34:37.460Z,18.98
2023-03-16T05:37:12.550Z,18.10
2023-03-16T05:39:47.722Z,18.85
2023-03-16T05:42:22.910Z,22.50
2023-03-16T05:45:03.965Z,18.13
2023-03-16T05:47:48.241Z,20.08
2023-03-16T05:50:23.437Z,20.63
2023-03-16T05:52:58.361Z,22.02
2023-03-16T05:55:33.466Z,21.52
2023-03-16T05:58:11.775Z,19.20
2023-03-16T06:00:50.173Z,24.25
2023-03-16T06:03:37.325Z,22.92
2023-03-16T06:06:19.908Z,23.88
2023-03-16T06:09:13.147Z,20.17
2023-03-16T06:11:48.240Z,22.00
2023-03-16T06:14:25.016Z,22.67
2023-03-16T06:17:02.636Z,25.10
2023-03-16T06:19:39.029Z,20.92
2023-03-16T06:22:15.427Z,18.60
2023-03-16T06:24:51.496Z,21.75
2023-03-16T06:27:26.649Z,22.73
2023-03-16T06:30:17.826Z,24.00
2023-03-16T06:32:52.850Z,23.70
2023-03-16T06:35:28.089Z,27.55
2023-03-16T06:38:19.673Z,28.07
2023-03-16T06:41:17.412Z,25.98
2023-03-16T06:43:54.189Z,27.08
2023-03-16T06:46:29.378Z,29.00
2023-03-16T06:49:05.913Z,25.77
2023-03-16T06:51:41.880Z,26.92
2023-03-16T06:54:16.931Z,27.77
2023-03-16T06:56:52.367Z,29.10
2023-03-16T06:59:27.705Z,27.13
2023-03-16T07:02:03.488Z,28.43
2023-03-16T07:04:38.748Z,29.23
2023-03-16T07:07:13.774Z,26.45
2023-03-16T07:09:49.081Z,30.53
2023-03-16T07:12:24.649Z,28.37
2023-03-16T07:15:01.163Z,29.23
2023-03-16T07:17:38.193Z,26.58
2023-03-16T07:20:15.174Z,29.00
2023-03-16T07:22:52.395Z,28.63
2023-03-16T07:25:27.485Z,30.30
2023-03-16T07:28:03.709Z,35.10
2023-03-16T07:30:56.673Z,36.90
2023-03-16T07:33:40.007Z,35.83
2023-03-16T07:36:18.054Z,35.00
2023-03-16T07:38:59.897Z,33.53
2023-03-16T07:41:35.035Z,37.87
2023-03-16T07:44:36.221Z,36.50
2023-03-16T07:47:14.352Z,36.57
2023-03-16T07:49:51.575Z,35.77
2023-03-16T07:52:26.755Z,31.47
2023-03-16T07:55:01.597Z,35.97
2023-03-16T07:57:36.791Z,33.67
2023-03-16T08:00:14.126Z,34.30
2023-03-16T08:02:52.583Z,30.83
2023-03-16T08:05:28.025Z,33.63
2023-03-16T08:08:09.694Z,32.03
2023-03-16T08:10:49.590Z,34.47
2023-03-16T08:13:28.241Z,40.50
2023-03-16T08:16:03.211Z,34.57
2023-03-16T08:18:43.701Z,38.37
2023-03-16T08:21:20.176Z,36.37
2023-03-16T08:23:55.296Z,36.07
2023-03-16T08:26:31.269Z,33.67
2023-03-16T08:29:06.775Z,33.17
2023-03-16T08:31:45.517Z,28.73
2023-03-16T08:34:26.676Z,27.57
2023-03-16T08:37:02.248Z,21.90
2023-03-16T08:39:37.354Z,20.73
2023-03-16T08:42:17.577Z,20.90
2023-03-16T08:44:57.362Z,16.33
2023-03-16T08:47:35.650Z,16.43
2023-03-16T08:50:13.238Z,12.13
2023-03-16T08:52:49.086Z,15.23
2023-03-16T08:55:24.564Z,13.40
2023-03-16T08:57:59.978Z,10.87
2023-03-16T09:00:35.232Z,11.23
2023-03-16T09:03:10.298Z,8.90
2023-03-16T09:05:45.397Z,10.93
2023-03-16T09:08:20.680Z,12.00
2023-03-16T09:11:09.527Z,10.20
2023-03-16T09:13:44.979Z,9.80
2023-03-16T09:16:21.058Z,9.03
2023-03-16T09:18:56.274Z,8.83
2023-03-16T09:21:31.368Z,8.73
2023-03-16T09:24:08.763Z,8.00
2023-03-16T09:26:45.192Z,11.13
2023-03-16T09:29:21.779Z,11.17
2023-03-16T09:31:56.663Z,7.47
2023-03-16T09:34:33.264Z,11.83
2023-03-16T09:37:09.735Z,6.47
2023-03-16T09:39:45.791Z,6.37
2023-03-16T09:42:39.243Z,6.23
2023-03-16T09:45:34.591Z,6.50
2023-03-16T09:48:10.837Z,5.57
2023-03-16T09:50:49.140Z,11.70
2023-03-16T09:53:32.871Z,5.50
2023-03-16T09:56:16.776Z,6.03
2023-03-16T09:58:51.732Z,5.10
2023-03-16T10:02:01.784Z,4.97
2023-03-16T10:04:54.728Z,5.20
2023-03-16T10:08:20.567Z,4.90
2023-03-16T10:11:49.434Z,4.80
2023-03-16T10:14:36.682Z,4.87
2023-03-16T10:17:17.645Z,5.97
2023-03-16T10:20:09.934Z,4.47
2023-03-16T10:22:48.055Z,5.17
2023-03-16T10:25:43.573Z,5.20
2023-03-16T10:28:28.072Z,4.80
2023-03-16T10:31:04.520Z,3.53
2023-03-16T10:33:40.511Z,4.33
2023-03-16T10:36:29.727Z,5.10
2023-03-16T10:39:09.535Z,4.33
2023-03-16T10:41:48.433Z,5.50
2023-03-16T10:44:26.695Z,5.90
2023-03-16T10:47:05.762Z,3.10
2023-03-16T10:49:48.713Z,3.70
2023-03-16T10:52:40.780Z,3.10
2023-03-16T10:55:32.606Z,4.53
2023-03-16T10:58:09.525Z,3.97
2023-03-16T11:00:47.251Z,3.23
2023-03-16T11:03:39.029Z,3.33
2023-03-16T11:06:32.058Z,3.77
2023-03-16T11:09:14.878Z,3.53
2023-03-16T11:11:51.458Z,4.30
2023-03-16T11:14:28.534Z,3.10
2023-03-16T11:17:16.136Z,5.37
2023-03-16T11:20:01.090Z,2.57
2023-03-16T11:22:36.364Z,2.17
2023-03-16T11:25:20.361Z,2.90
2023-03-16T11:28:11.910Z,2.40
2023-03-16T11:31:36.311Z,5.13
2023-03-16T11:34:21.710Z,1.80
2023-03-16T11:37:10.449Z,2.07
2023-03-16T11:40:22.201Z,4.03
2023-03-16T11:43:22.190Z,2.73
2023-03-16T11:46:28.490Z,2.40
2023-03-16T11:49:31.694Z,2.00
2023-03-16T11:52:33.780Z,2.57
2023-03-16T11:55:19.808Z,1.93
2023-03-16T11:58:10.080Z,2.23
2023-03-16T12:00:52.716Z,2.10
2023-03-16T12:03:54.726Z,2.13
2023-03-16T12:07:02.196Z,1.90
2023-03-16T12:09:59.208Z,2.60
2023-03-16T12:12:53.368Z,2.73
2023-03-16T12:15:47.769Z,1.73
2023-03-16T12:18:39.320Z,1.70
2023-03-16T12:21:24.462Z,1.60
2023-03-16T12:24:06.825Z,2.03
2023-03-16T12:26:43.457Z,1.60
2023-03-16T12:29:41.512Z,1.83
2023-03-16T12:32:28.393Z,1.97
2023-03-16T12:35:47.767Z,1.80
2023-03-16T12:38:44.265Z,1.70
2023-03-16T12:41:44.026Z,2.10
2023-03-16T12:44:50.736Z,2.57
2023-03-16T12:47:46.290Z,1.77
2023-03-16T12:50:21.375Z,3.40
2023-03-16T12:52:57.046Z,1.90
2023-03-16T12:55:44.672Z,1.60
2023-03-16T12:58:19.659Z,2.20
2023-03-16T13:00:58.745Z,2.10
2023-03-16T13:03:34.044Z,2.53
2023-03-16T13:06:22.406Z,2.03
2023-03-16T13:08:59.780Z,1.90
2023-03-16T13:11:50.173Z,2.40
2023-03-16T13:14:40.440Z,2.70
2023-03-16T13:17:18.476Z,2.57
2023-03-16T13:20:30.650Z,4.77
2023-03-16T13:23:38.753Z,3.20
2023-03-16T13:26:18.670Z,2.00
2023-03-16T13:28:55.239Z,2.40
2023-03-16T13:31:38.953Z,3.73
2023-03-16T13:34:21.665Z,2.77
2023-03-16T13:36:59.356Z,2.47
2023-03-16T13:39:34.214Z,2.50
2023-03-16T13:42:09.619Z,2.27
2023-03-16T13:44:45.404Z,2.13
2023-03-16T13:47:21.138Z,2.20
2023-03-16T13:49:58.938Z,3.00
2023-03-16T13:52:35.488Z,2.47
2023-03-16T13:55:22.206Z,2.27
2023-03-16T13:57:57.599Z,2.30
2023-03-16T14:00:36.955Z,1.97
2023-03-16T14:03:18.563Z,2.03
2023-03-16T14:05:53.503Z,1.80
2023-03-16T14:08:29.871Z,4.73
2023-03-16T14:11:04.855Z,2.70
2023-03-16T14:13:39.725Z,1.47
2023-03-16T14:16:20.001Z,1.50
2023-03-16T14:19:03.805Z,2.20
2023-03-16T14:21:45.840Z,2.73
2023-03-16T14:24:37.459Z,2.00
2023-03-16T14:27:29.611Z,1.90
2023-03-16T14:30:27.838Z,1.67
2023-03-16T14:33:06.619Z,2.70
2023-03-16T14:35:44.994Z,2.17
2023-03-16T14:38:27.127Z,2.53
2023-03-16T14:41:17.025Z,2.03
2023-03-16T14:43:57.638Z,1.70
2023-03-16T14:46:38.028Z,1.80
2023-03-16T14:49:37.970Z,1.90
2023-03-16T14:52:33.617Z,4.93
2023-03-16T14:55:20.711Z,1.53
2023-03-16T14:57:55.640Z,1.97
2023-03-16T15:00:37.177Z,1.73
2023-03-16T15:03:17.827Z,4.80
2023-03-16T15:05:52.766Z,1.63
2023-03-16T15:08:32.727Z,1.63
2023-03-16T15:11:07.692Z,1.63
2023-03-16T15:13:53.269Z,1.53
2023-03-16T15:16:29.170Z,2.23
2023-03-16T15:19:04.059Z,1.90
2023-03-16T15:21:38.970Z,2.30
2023-03-16T15:24:13.823Z,1.33
2023-03-16T15:26:48.761Z,2.27
2023-03-16T15:29:23.900Z,2.50
2023-03-16T15:31:58.753Z,3.03
2023-03-16T15:34:33.580Z,1.50
2023-03-16T15:37:14.662Z,1.50
2023-03-16T15:39:49.503Z,2.47
2023-03-16T15:42:26.691Z,3.13
2023-03-16T15:45:01.518Z,1.87
2023-03-16T15:47:36.346Z,1.57
2023-03-16T15:50:15.573Z,1.80
2023-03-16T15:53:01.967Z,1.60
2023-03-16T15:55:41.964Z,1.93
2023-03-16T15:58:25.499Z,2.70
2023-03-16T16:01:02.247Z,1.50
2023-03-16T16:03:37.092Z,2.53
2023-03-16T16:06:12.565Z,1.70
2023-03-16T16:08:47.551Z,1.83
2023-03-16T16:11:27.479Z,1.83
2023-03-16T16:14:02.968Z,3.27
2023-03-16T16:16:39.249Z,2.20
2023-03-16T16:19:15.586Z,1.57
2023-03-16T16:21:50.997Z,2.03
2023-03-16T16:24:25.931Z,1.80
2023-03-16T16:27:00.791Z,3.40
2023-03-16T16:29:35.794Z,2.20
2023-03-16T16:32:31.437Z,3.70
2023-03-16T16:35:14.442Z,2.30
2023-03-16T16:37:50.604Z,5.50
2023-03-16T16:40:35.612Z,2.00
2023-03-16T16:43:21.739Z,2.63
2023-03-16T16:45:56.764Z,2.57
2023-03-16T16:48:36.743Z,2.47
2023-03-16T16:51:23.150Z,2.33
2023-03-16T16:54:01.074Z,2.43
2023-03-16T16:56:38.230Z,2.00
2023-03-16T16:59:24.166Z,1.80
2023-03-16T17:02:01.838Z,2.27
2023-03-16T17:04:36.828Z,2.43
2023-03-16T17:07:12.473Z,3.40
2023-03-16T17:09:47.583Z,2.13
2023-03-16T17:12:23.661Z,2.40
2023-03-16T17:15:01.234Z,2.80
2023-03-16T17:17:37.133Z,2.00
2023-03-16T17:20:21.271Z,2.03
2023-03-16T17:22:58.664Z,1.70
2023-03-16T17:25:34.138Z,1.80
2023-03-16T17:28:10.086Z,1.57
2023-03-16T17:30:49.703Z,1.83
2023-03-16T17:33:29.190Z,2.63
2023-03-16T17:36:06.605Z,1.90
2023-03-16T17:38:44.501Z,2.07
2023-03-16T17:41:23.992Z,2.70
2023-03-16T17:44:02.918Z,3.37
2023-03-16T17:46:38.056Z,2.43
2023-03-16T17:49:15.018Z,2.50
2023-03-16T17:51:53.554Z,2.37
2023-03-16T17:54:29.032Z,1.90
2023-03-16T17:57:04.368Z,2.40
2023-03-16T17:59:39.966Z,1.80
2023-03-16T18:02:57.584Z,3.33
2023-03-16T18:05:37.550Z,3.07
2023-03-16T18:08:20.674Z,2.30
2023-03-16T18:11:03.653Z,4.37
2023-03-16T18:13:43.782Z,1.90
2023-03-16T18:16:28.260Z,1.83
2023-03-16T18:19:05.897Z,5.00
2023-03-16T18:21:40.856Z,2.10
2023-03-16T18:24:16.619Z,3.10
2023-03-16T18:26:51.817Z,3.10
2023-03-16T18:29:26.865Z,2.27
2023-03-16T18:32:01.908Z,2.10
2023-03-16T18:34:36.845Z,2.37
2023-03-16T18:37:23.084Z,2.87
2023-03-16T18:39:58.106Z,2.00
2023-03-16T18:42:35.791Z,3.73
2023-03-16T18:45:17.607Z,2.17
2023-03-16T18:47:57.927Z,1.70
2023-03-16T18:50:33.497Z,2.37
2023-03-16T18:53:17.088Z,2.53
2023-03-16T18:55:57.408Z,1.70
2023-03-16T18:58:37.753Z,3.00
2023-03-16T19:01:27.779Z,6.13
2023-03-16T19:04:37.991Z,2.27
2023-03-16T19:07:41.862Z,5.90
2023-03-16T19:10:33.503Z,2.27
2023-03-16T19:13:19.168Z,2.03
2023-03-16T19:15:57.747Z,2.33
2023-03-16T19:18:42.224Z,2.53
2023-03-16T19:21:23.505Z,1.90
2023-03-16T19:24:02.866Z,3.03
2023-03-16T19:26:37.957Z,11.47
2023-03-16T19:29:14.859Z,8.87
2023-03-16T19:31:50.460Z,4.50
2023-03-16T19:34:25.857Z,3.77
2023-03-16T19:37:00.927Z,6.00
2023-03-16T19:39:36.593Z,2.63
2023-03-16T19:42:37.119Z,2.63
2023-03-16T19:45:25.683Z,3.33
2023-03-16T19:48:01.086Z,5.07
2023-03-16T19:50:36.748Z,2.87
2023-03-16T19:53:23.713Z,3.13
2023-03-16T19:56:02.186Z,2.83
2023-03-16T19:58:41.560Z,2.93
2023-03-16T20:01:19.465Z,3.90
2023-03-16T20:03:54.475Z,4.80
2023-03-16T20:06:29.981Z,4.27
2023-03-16T20:09:05.310Z,4.13
2023-03-16T20:11:40.599Z,6.67
2023-03-16T20:14:29.563Z,2.93
2023-03-16T20:17:09.387Z,2.70
2023-03-16T20:19:44.976Z,4.60
2023-03-16T20:22:23.573Z,4.97
2023-03-16T20:25:01.410Z,3.40
2023-03-16T20:27:36.655Z,4.80
2023-03-16T20:30:17.642Z,3.30
2023-03-16T20:32:52.807Z,4.00
2023-03-16T20:35:31.365Z,4.00
2023-03-16T20:38:13.352Z,6.77
2023-03-16T20:40:52.849Z,5.47
2023-03-16T20:43:32.165Z,4.20
2023-03-16T20:46:16.435Z,3.63
2023-03-16T20:48:55.355Z,6.43
2023-03-16T20:51:30.517Z,2.93
2023-03-16T20:54:05.533Z,4.10
2023-03-16T20:56:41.182Z,4.07
2023-03-16T20:59:24.759Z,4.33
2023-03-16T21:02:01.065Z,4.03
2023-03-16T21:04:36.121Z,4.73
2023-03-16T21:07:11.043Z,4.30
2023-03-16T21:09:50.228Z,5.10
2023-03-16T21:12:30.527Z,6.20
2023-03-16T21:15:24.827Z,6.50
2023-03-16T21:18:03.577Z,6.07
2023-03-16T21:20:38.502Z,6.30
2023-03-16T21:23:17.462Z,5.10
2023-03-16T21:26:00.516Z,4.60
2023-03-16T21:28:36.623Z,6.00
2023-03-16T21:31:19.575Z,4.73
2023-03-16T21:33:55.613Z,4.80
2023-03-16T21:36:30.672Z,5.60
2023-03-16T21:39:19.347Z,4.83
2023-03-16T21:41:55.001Z,5.00
2023-03-16T21:44:29.847Z,6.20
2023-03-16T21:47:28.213Z,8.40
2023-03-16T21:50:06.105Z,4.10
2023-03-16T21:52:44.801Z,8.87
2023-03-16T21:55:26.901Z,6.40
2023-03-16T21:58:02.703Z,8.07
2023-03-16T22:00:37.659Z,5.63
2023-03-16T22:03:23.602Z,6.47
2023-03-16T22:06:00.226Z,4.90
2023-03-16T22:08:35.212Z,6.37
2023-03-16T22:11:23.103Z,5.90
2023-03-16T22:13:59.411Z,4.47
2023-03-16T22:16:36.353Z,5.83
2023-03-16T22:19:15.836Z,5.53
2023-03-16T22:21:50.974Z,5.83
2023-03-16T22:24:31.038Z,6.00
2023-03-16T22:27:18.480Z,7.87
2023-03-16T22:29:53.340Z,5.90
2023-03-16T22:32:28.334Z,4.37
2023-03-16T22:35:05.049Z,5.30
2023-03-16T22:37:39.993Z,5.50
2023-03-16T22:40:18.579Z,5.90
2023-03-16T22:42:55.523Z,6.77
2023-03-16T22:45:33.447Z,4.93
2023-03-16T22:48:22.109Z,6.37
2023-03-16T22:51:02.309Z,5.17
2023-03-16T22:53:41.836Z,5.67
2023-03-16T22:56:17.653Z,6.20
2023-03-16T22:59:00.755Z,6.50
2023-03-16T23:01:41.358Z,4.80
2023-03-16T23:04:29.786Z,6.23
2023-03-16T23:07:12.398Z,5.57
2023-03-16T23:09:48.487Z,4.93
2023-03-16T23:12:23.440Z,4.47
2023-03-16T23:14:58.277Z,7.13
2023-03-16T23:17:33.263Z,3.70
2023-03-16T23:20:29.080Z,5.10
2023-03-16T23:23:04.264Z,5.20
2023-03-16T23:25:39.764Z,6.17
2023-03-16T23:28:21.156Z,5.47
2023-03-16T23:30:56.457Z,5.53
2023-03-16T23:33:31.948Z,6.00
2023-03-16T23:36:14.855Z,4.80
2023-03-16T23:38:50.408Z,5.30
2023-03-16T23:41:25.692Z,5.07
2023-03-16T23:44:01.366Z,8.20
2023-03-16T23:46:36.206Z,5.73
2023-03-16T23:49:21.940Z,5.37
2023-03-16T23:51:59.336Z,5.67
2023-03-16T23:54:34.358Z,4.50
2023-03-16T23:57:09.360Z,4.80
2023-03-16T23:59:44.312Z,6.57
